createdAt,value
2023-05-10T00:01:21.169Z,9.13
2023-05-10T00:03:48.726Z,9.23
2023-05-10T00:06:15.962Z,8.95
2023-05-10T00:08:43.583Z,12.50
2023-05-10T00:11:16.440Z,11.48
2023-05-10T00:13:43.759Z,10.48
2023-05-10T00:16:10.846Z,8.32
2023-05-10T00:18:38.448Z,9.25
2023-05-10T00:21:06.153Z,9.75
2023-05-10T00:23:33.521Z,10.13
2023-05-10T00:26:00.666Z,9.07
2023-05-10T00:28:29.933Z,9.73
2023-05-10T00:30:57.260Z,9.25
2023-05-10T00:33:24.739Z,8.52
2023-05-10T00:35:51.946Z,11.07
2023-05-10T00:38:19.436Z,11.75
2023-05-10T00:40:46.460Z,8.63
2023-05-10T00:43:13.869Z,7.80
2023-05-10T00:45:41.433Z,6.78
2023-05-10T00:48:09.689Z,7.63
2023-05-10T00:50:36.793Z,11.00
2023-05-10T00:53:04.755Z,11.23
2023-05-10T00:55:32.237Z,11.07
2023-05-10T00:57:59.635Z,8.63
2023-05-10T01:00:29.869Z,9.30
2023-05-10T01:02:57.353Z,8.38
2023-05-10T01:05:24.625Z,10.43
2023-05-10T01:07:52.080Z,12.63
2023-05-10T01:10:19.679Z,9.43
2023-05-10T01:12:48.811Z,11.20
2023-05-10T01:15:17.782Z,9.77
2023-05-10T01:17:48.394Z,10.75
2023-05-10T01:20:16.546Z,15.18
2023-05-10T01:22:53.303Z,11.63
2023-05-10T01:25:55.748Z,10.52
2023-05-10T01:28:45.343Z,11.23
2023-05-10T01:31:39.434Z,7.55
2023-05-10T01:34:12.915Z,13.73
2023-05-10T01:36:46.724Z,6.72
2023-05-10T01:39:35.863Z,10.18
2023-05-10T01:42:18.885Z,15.85
2023-05-10T01:44:52.250Z,11.02
2023-05-10T01:47:44.303Z,12.00
2023-05-10T01:50:17.067Z,9.77
2023-05-10T01:52:49.231Z,8.50
2023-05-10T01:55:19.232Z,10.60
2023-05-10T01:57:52.134Z,9.98
2023-05-10T02:00:21.373Z,11.35
2023-05-10T02:02:50.852Z,10.05
2023-05-10T02:05:20.087Z,8.13
2023-05-10T02:07:48.460Z,7.10
2023-05-10T02:10:17.173Z,10.00
2023-05-10T02:12:47.188Z,9.60
2023-05-10T02:15:22.062Z,9.30
2023-05-10T02:17:49.869Z,7.43
2023-05-10T02:20:19.769Z,10.93
2023-05-10T02:22:50.313Z,13.00
2023-05-10T02:25:20.469Z,12.40
2023-05-10T02:27:49.426Z,9.43
2023-05-10T02:30:18.119Z,7.55
2023-05-10T02:32:48.031Z,12.75
2023-05-10T02:35:16.351Z,12.82
2023-05-10T02:37:45.112Z,10.60
2023-05-10T02:40:15.826Z,11.18
2023-05-10T02:42:45.873Z,7.90
2023-05-10T02:45:16.260Z,10.20
2023-05-10T02:47:43.435Z,14.68
2023-05-10T02:50:11.328Z,17.00
2023-05-10T02:52:43.552Z,21.70
2023-05-10T02:55:14.288Z,17.23
2023-05-10T02:57:47.366Z,11.80
2023-05-10T03:00:15.271Z,13.55
2023-05-10T03:02:43.431Z,13.40
2023-05-10T03:05:10.840Z,10.77
2023-05-10T03:07:37.883Z,15.73
2023-05-10T03:10:06.338Z,14.13
2023-05-10T03:12:41.817Z,11.32
2023-05-10T03:15:09.062Z,14.93
2023-05-10T03:17:47.341Z,11.73
2023-05-10T03:20:25.503Z,12.55
2023-05-10T03:22:57.467Z,15.13
2023-05-10T03:25:25.913Z,10.00
2023-05-10T03:27:53.444Z,14.57
2023-05-10T03:30:22.638Z,14.90
2023-05-10T03:32:49.671Z,13.80
2023-05-10T03:35:17.165Z,16.60
2023-05-10T03:37:44.260Z,14.05
2023-05-10T03:40:11.978Z,12.13
2023-05-10T03:42:40.100Z,11.05
2023-05-10T03:45:09.404Z,17.15
2023-05-10T03:47:36.389Z,18.52
2023-05-10T03:50:04.128Z,10.40
2023-05-10T03:52:31.170Z,12.93
2023-05-10T03:54:58.460Z,11.93
2023-05-10T03:57:25.937Z,11.00
2023-05-10T03:59:53.257Z,9.40
2023-05-10T04:02:21.055Z,9.95
2023-05-10T04:04:49.372Z,6.43
2023-05-10T04:07:16.561Z,7.78
2023-05-10T04:09:44.141Z,9.90
2023-05-10T04:12:11.276Z,8.30
2023-05-10T04:14:38.904Z,7.03
2023-05-10T04:17:09.233Z,6.43
2023-05-10T04:19:38.204Z,8.27
2023-05-10T04:22:05.701Z,6.45
2023-05-10T04:24:33.667Z,8.07
2023-05-10T04:27:00.730Z,5.72
2023-05-10T04:29:29.712Z,6.93
2023-05-10T04:32:00.758Z,7.40
2023-05-10T04:34:36.004Z,8.75
2023-05-10T04:37:06.524Z,6.18
2023-05-10T04:39:34.842Z,15.38
2023-05-10T04:42:04.034Z,7.32
2023-05-10T04:44:31.975Z,6.20
2023-05-10T05:16:34.204Z,6.10
2023-05-10T05:19:22.595Z,11.70
2023-05-10T05:27:46.180Z,12.20
2023-05-10T05:30:26.936Z,11.27
2023-05-10T05:35:59.282Z,10.57
2023-05-10T05:50:04.806Z,6.53
2023-05-10T05:52:47.623Z,4.32
2023-05-10T05:57:59.055Z,4.30
2023-05-10T06:00:43.087Z,6.72
2023-05-10T06:09:37.210Z,4.13
2023-05-10T06:23:40.922Z,3.65
2023-05-10T06:28:51.289Z,3.50
2023-05-10T06:31:34.382Z,3.60
2023-05-10T06:34:12.185Z,4.72
2023-05-10T06:36:40.537Z,3.42
2023-05-10T06:39:11.535Z,3.88
2023-05-10T06:41:58.664Z,6.32
2023-05-10T06:44:29.861Z,1.45
2023-05-10T06:52:27.644Z,1.92
2023-05-10T07:00:53.252Z,1.23
2023-05-10T07:03:25.401Z,1.35
2023-05-10T07:05:57.099Z,4.05
2023-05-10T07:11:07.224Z,1.95
2023-05-10T07:13:35.830Z,2.88
2023-05-10T07:16:04.396Z,2.85
2023-05-10T07:18:40.310Z,2.85
2023-05-10T07:21:07.817Z,2.50
2023-05-10T07:23:36.284Z,1.52
2023-05-10T07:26:03.523Z,3.33
2023-05-10T07:28:41.720Z,1.42
2023-05-10T07:31:12.026Z,2.17
2023-05-10T07:33:40.347Z,2.85
2023-05-10T07:36:09.334Z,4.22
2023-05-10T07:38:40.919Z,6.93
2023-05-10T07:41:08.423Z,2.22
2023-05-10T07:43:38.827Z,1.17
2023-05-10T07:46:06.646Z,2.47
2023-05-10T07:48:35.767Z,3.95
2023-05-10T07:51:07.452Z,2.15
2023-05-10T07:53:35.338Z,13.73
2023-05-10T07:56:30.646Z,4.13
2023-05-10T07:59:02.300Z,3.55
2023-05-10T08:01:33.668Z,3.45
2023-05-10T08:04:03.129Z,2.25
2023-05-10T08:09:02.709Z,2.92
2023-05-10T08:11:29.759Z,4.65
2023-05-10T08:13:59.252Z,5.03
2023-05-10T08:16:32.379Z,2.63
2023-05-10T08:19:00.693Z,3.88
2023-05-10T08:21:28.083Z,3.42
2023-05-10T08:23:56.020Z,2.25
2023-05-10T08:26:23.708Z,2.88
2023-05-10T08:31:20.810Z,3.67
2023-05-10T08:33:48.932Z,1.75
2023-05-10T08:36:31.102Z,2.97
2023-05-10T08:39:04.532Z,3.13
2023-05-10T08:41:38.005Z,2.85
2023-05-10T08:44:09.344Z,2.25
2023-05-10T08:46:44.027Z,4.75
2023-05-10T08:49:20.308Z,6.72
2023-05-10T08:51:56.741Z,5.82
2023-05-10T08:54:30.302Z,2.78
2023-05-10T08:56:58.504Z,3.17
2023-05-10T08:59:26.868Z,2.80
2023-05-10T09:01:57.007Z,4.03
2023-05-10T09:04:27.713Z,3.10
2023-05-10T09:06:55.771Z,7.32
2023-05-10T09:11:54.485Z,4.55
2023-05-10T09:17:08.554Z,3.67
2023-05-10T09:22:18.834Z,4.30
2023-05-10T09:24:47.572Z,4.20
2023-05-10T09:27:15.556Z,4.38
2023-05-10T09:29:44.809Z,4.05
2023-05-10T09:35:00.435Z,3.17
2023-05-10T09:37:38.188Z,7.72
2023-05-10T09:40:12.322Z,3.72
2023-05-10T09:42:54.518Z,6.55
2023-05-10T09:45:24.240Z,2.42
2023-05-10T09:47:53.549Z,2.50
2023-05-10T09:50:21.737Z,3.22
2023-05-10T09:53:04.114Z,6.07
2023-05-10T09:55:37.616Z,4.13
2023-05-10T10:28:41.178Z,2.50
2023-05-10T10:31:35.479Z,3.72
2023-05-10T10:34:11.251Z,3.22
2023-05-10T10:39:51.530Z,1.48
2023-05-10T11:42:08.911Z,2.70
2023-05-10T11:44:48.562Z,4.55
2023-05-10T11:47:17.727Z,2.80
2023-05-10T11:49:46.131Z,5.18
2023-05-10T11:52:13.598Z,4.88
2023-05-10T11:54:55.428Z,4.97
2023-05-10T11:57:28.259Z,3.97
2023-05-10T11:59:58.613Z,2.22
2023-05-10T12:02:26.353Z,7.05
2023-05-10T12:04:54.352Z,4.72
2023-05-10T12:07:21.607Z,10.88
2023-05-10T12:10:09.750Z,6.78
2023-05-10T12:12:40.901Z,4.00
2023-05-10T12:15:23.532Z,3.10
2023-05-10T12:36:43.409Z,3.33
2023-05-10T12:39:11.441Z,3.78
2023-05-10T12:41:40.041Z,3.92
2023-05-10T12:44:08.714Z,3.83
2023-05-10T12:46:36.791Z,3.28
2023-05-10T12:49:09.762Z,7.22
2023-05-10T12:51:39.881Z,4.10
2023-05-10T12:54:12.786Z,3.13
2023-05-10T12:56:42.759Z,4.60
2023-05-10T12:59:10.418Z,1.92
2023-05-10T13:01:42.719Z,5.63
2023-05-10T13:04:14.662Z,2.92
2023-05-10T13:06:46.513Z,3.58
2023-05-10T13:09:15.527Z,2.00
2023-05-10T13:11:45.782Z,2.38
2023-05-10T13:14:14.647Z,2.80
2023-05-10T13:19:32.343Z,3.03
2023-05-10T13:21:59.771Z,2.90
2023-05-10T13:24:29.023Z,1.95
2023-05-10T13:26:56.602Z,1.63
2023-05-10T13:29:35.364Z,1.55
2023-05-10T13:32:04.209Z,2.67
2023-05-10T13:35:00.178Z,1.92
2023-05-10T13:37:28.450Z,3.20
2023-05-10T13:39:56.268Z,2.00
2023-05-10T13:42:24.778Z,2.78
2023-05-10T13:44:51.842Z,3.22
2023-05-10T13:47:19.829Z,1.65
2023-05-10T13:49:46.964Z,2.05
2023-05-10T13:52:14.897Z,3.15
2023-05-10T13:54:42.744Z,3.83
2023-05-10T13:57:10.365Z,3.40
2023-05-10T13:59:37.651Z,3.00
2023-05-10T14:02:05.364Z,1.75
2023-05-10T14:04:32.924Z,2.17
2023-05-10T14:07:01.204Z,1.95
2023-05-10T14:09:28.546Z,3.17
2023-05-10T14:12:00.705Z,3.88
2023-05-10T14:14:29.538Z,2.75
2023-05-10T14:16:58.063Z,3.85
2023-05-10T14:19:25.500Z,3.50
2023-05-10T14:21:56.358Z,2.28
2023-05-10T14:24:23.728Z,2.03
2023-05-10T14:29:36.380Z,1.52
2023-05-10T14:32:06.665Z,4.13
2023-05-10T14:34:35.707Z,3.58
2023-05-10T14:37:05.051Z,2.67
2023-05-10T14:42:26.820Z,2.42
2023-05-10T14:44:59.473Z,3.10
2023-05-10T14:47:31.543Z,6.82
2023-05-10T14:49:59.803Z,1.63
2023-05-10T14:55:32.443Z,2.65
2023-05-10T14:58:00.568Z,1.35
2023-05-10T15:00:34.556Z,4.72
2023-05-10T15:03:16.773Z,2.92
2023-05-10T15:05:44.868Z,1.60
2023-05-10T15:08:17.078Z,2.28
2023-05-10T15:10:44.910Z,2.22
2023-05-10T15:13:13.780Z,1.67
2023-05-10T15:15:42.143Z,3.47
2023-05-10T15:26:58.932Z,2.05
2023-05-10T15:38:14.466Z,1.50
2023-05-10T15:43:53.319Z,4.35
2023-05-10T15:50:16.755Z,1.35
2023-05-10T15:53:00.310Z,1.50
2023-05-10T18:52:47.667Z,10.68
2023-05-10T18:55:15.217Z,11.00
2023-05-10T18:57:45.303Z,9.18
2023-05-10T19:00:12.962Z,7.65
2023-05-10T19:02:44.898Z,8.13
2023-05-10T19:05:15.778Z,6.57
2023-05-10T19:07:49.316Z,5.55
2023-05-10T19:10:16.788Z,10.15
2023-05-10T19:12:44.517Z,9.20
2023-05-10T19:15:12.343Z,9.02
2023-05-10T19:17:40.566Z,9.30
2023-05-10T19:20:08.708Z,9.32
2023-05-10T19:23:09.209Z,6.45
2023-05-10T19:25:37.179Z,12.60
2023-05-10T19:28:04.666Z,7.30
2023-05-10T19:30:31.956Z,8.48
2023-05-10T19:32:59.950Z,5.78
2023-05-10T19:35:38.305Z,7.97
2023-05-10T19:38:06.382Z,6.53
2023-05-10T19:40:34.165Z,8.70
2023-05-10T19:43:02.143Z,4.68
2023-05-10T19:45:29.351Z,9.73
2023-05-10T19:47:56.985Z,5.68
2023-05-10T19:50:24.228Z,7.38
2023-05-10T19:52:51.818Z,6.65
2023-05-10T19:55:31.238Z,5.78
2023-05-10T19:58:02.172Z,5.38
2023-05-10T20:00:31.925Z,12.63
2023-05-10T20:02:59.985Z,6.68
2023-05-10T20:05:27.610Z,3.90
2023-05-10T20:07:55.162Z,8.27
2023-05-10T20:10:23.820Z,4.65
2023-05-10T20:12:53.394Z,8.25
2023-05-10T20:15:23.019Z,9.57
2023-05-10T20:17:52.124Z,7.63
2023-05-10T20:20:20.302Z,7.05
2023-05-10T20:22:49.603Z,7.43
2023-05-10T20:25:18.262Z,6.25
2023-05-10T20:27:50.999Z,8.38
2023-05-10T20:30:20.341Z,8.95
2023-05-10T20:32:48.426Z,6.95
2023-05-10T20:35:15.532Z,8.18
2023-05-10T20:37:43.806Z,8.95
2023-05-10T20:40:11.474Z,7.07
2023-05-10T20:42:38.995Z,7.40
2023-05-10T20:45:06.626Z,7.35
2023-05-10T20:47:34.260Z,12.35
2023-05-10T20:50:01.424Z,14.35
2023-05-10T20:52:28.758Z,8.48
2023-05-10T20:54:56.139Z,8.52
2023-05-10T20:57:23.565Z,9.82
2023-05-10T20:59:51.254Z,7.25
2023-05-10T21:02:18.670Z,14.77
2023-05-10T21:04:46.302Z,10.05
2023-05-10T21:07:13.878Z,7.95
2023-05-10T21:09:42.639Z,10.18
2023-05-10T21:12:10.395Z,6.78
2023-05-10T21:14:37.349Z,6.97
2023-05-10T21:17:05.172Z,10.38
2023-05-10T21:19:32.394Z,7.35
2023-05-10T21:22:00.123Z,6.75
2023-05-10T21:24:27.231Z,7.85
2023-05-10T21:26:54.764Z,8.00
2023-05-10T21:29:21.792Z,9.68
2023-05-10T21:31:49.352Z,9.70
2023-05-10T21:34:18.023Z,8.98
2023-05-10T21:36:45.761Z,12.07
2023-05-10T21:39:12.813Z,9.60
2023-05-10T21:41:40.377Z,10.10
2023-05-10T21:44:07.521Z,11.50
2023-05-10T21:46:34.893Z,7.35
2023-05-10T21:49:01.868Z,11.45
2023-05-10T21:51:29.365Z,10.13
2023-05-10T21:53:59.353Z,10.50
2023-05-10T21:56:27.509Z,8.88
2023-05-10T21:58:54.873Z,10.13
2023-05-10T22:01:22.276Z,6.78
2023-05-10T22:03:49.376Z,8.43
2023-05-10T22:06:16.826Z,5.65
2023-05-10T22:08:44.274Z,8.07
2023-05-10T22:11:11.872Z,5.70
2023-05-10T22:13:38.857Z,9.82
2023-05-10T22:16:06.968Z,6.00
2023-05-10T22:18:34.285Z,9.85
2023-05-10T22:21:01.805Z,4.30
2023-05-10T22:23:28.960Z,7.30
2023-05-10T22:26:01.268Z,8.38
2023-05-10T22:28:28.919Z,6.53
2023-05-10T22:30:56.320Z,8.88
2023-05-10T22:33:23.675Z,5.90
2023-05-10T22:35:51.067Z,5.75
2023-05-10T22:38:18.140Z,8.20
2023-05-10T22:40:45.695Z,6.75
2023-05-10T22:43:12.775Z,7.95
2023-05-10T22:45:40.520Z,11.57
2023-05-10T22:48:09.546Z,9.95
2023-05-10T22:50:37.134Z,10.60
2023-05-10T22:53:05.136Z,8.82
2023-05-10T22:55:32.500Z,6.30
2023-05-10T22:57:59.591Z,10.05
2023-05-10T23:00:27.253Z,5.80
2023-05-10T23:02:55.112Z,9.98
2023-05-10T23:05:23.564Z,6.03
2023-05-10T23:07:53.384Z,7.80
2023-05-10T23:10:20.910Z,5.45
2023-05-10T23:12:48.174Z,8.15
2023-05-10T23:15:15.515Z,7.10
2023-05-10T23:17:42.640Z,7.72
2023-05-10T23:20:10.742Z,8.48
2023-05-10T23:22:37.939Z,7.32
2023-05-10T23:25:05.912Z,9.35
2023-05-10T23:27:33.038Z,9.77
2023-05-10T23:30:00.464Z,9.07
2023-05-10T23:32:27.550Z,8.85
2023-05-10T23:34:55.065Z,9.88
2023-05-10T23:37:22.067Z,8.00
2023-05-10T23:39:49.437Z,8.43
2023-05-10T23:42:16.542Z,9.23
2023-05-10T23:44:44.101Z,9.30
2023-05-10T23:47:11.180Z,10.05
2023-05-10T23:49:38.717Z,9.50
2023-05-10T23:52:05.768Z,8.82
2023-05-10T23:54:33.054Z,7.70
2023-05-10T23:57:00.072Z,8.82
2023-05-10T23:59:27.605Z,9.57
